Time,TemperatureF,DewpointF,PressureIn,WindDirection,WindDirectionDegrees,WindSpeedMPH,WindSpeedGustMPH,Humidity,HourlyPrecipIn,Conditions,Clouds,dailyrainin,SoftwareType,DateUTC
2013-10-14 00:03:00,63.9,60.0,29.68,ESE,123,1.0,2.0,87,0.23,,,0.01,Wunderground v.1.15,2013-10-13 13:03:00,
2013-10-14 00:09:00,63.7,60.1,29.69,SW,224,1.0,2.0,88,0.12,,,0.02,Wunderground v.1.15,2013-10-13 13:09:00,
2013-10-14 00:14:00,63.5,59.9,29.69,SE,134,0.0,1.0,88,0.08,,,0.02,Wunderground v.1.15,2013-10-13 13:14:00,
2013-10-14 00:19:00,63.4,60.1,29.69,SSE,157,0.0,1.0,89,0.06,,,0.02,Wunderground v.1.15,2013-10-13 13:19:00,
2013-10-14 00:25:00,63.2,59.9,29.69,SSE,158,0.0,0.0,89,0.06,,,0.02,Wunderground v.1.15,2013-10-13 13:25:00,
2013-10-14 00:30:00,63.4,60.1,29.69,North,-999,0.0,0.0,89,0.10,,,-99.99,WeatherLink 5.9.3,2013-10-13 13:30:00,
2013-10-14 00:36:00,63.0,60.0,29.69,NW,312,0.0,0.0,90,0.04,,,0.03,Wunderground v.1.15,2013-10-13 13:36:00,
2013-10-14 00:42:00,62.9,59.9,29.69,NW,312,0.0,0.0,90,0.04,,,0.03,Wunderground v.1.15,2013-10-13 13:42:00,
2013-10-14 00:47:00,62.8,60.1,29.70,NW,312,0.0,0.0,91,0.04,,,0.03,Wunderground v.1.15,2013-10-13 13:47:00,
2013-10-14 00:52:00,62.8,60.1,29.70,NW,322,0.0,0.0,91,0.00,,,0.03,Wunderground v.1.15,2013-10-13 13:52:00,
2013-10-14 00:58:00,62.7,60.3,29.69,NW,321,0.0,0.0,92,0.00,,,0.04,Wunderground v.1.15,2013-10-13 13:58:00,
2013-10-14 01:03:00,62.6,60.2,29.69,NW,321,0.0,0.0,92,0.09,,,0.05,Wunderground v.1.15,2013-10-13 14:03:00,
2013-10-14 01:09:00,62.4,60.0,29.68,NE,46,0.0,1.0,92,0.11,,,0.06,Wunderground v.1.15,2013-10-13 14:09:00,
2013-10-14 01:14:00,62.4,60.0,29.71,NW,305,1.0,2.0,92,0.06,,,0.06,Wunderground v.1.15,2013-10-13 14:14:00,
2013-10-14 01:19:00,62.3,59.9,29.71,NW,305,1.0,2.0,92,0.04,,,0.06,Wunderground v.1.15,2013-10-13 14:19:00,
2013-10-14 01:24:00,61.5,57.6,29.69,West,280,1.0,4.0,87,0.04,,,0.06,Wunderground v.1.15,2013-10-13 14:24:00,
2013-10-14 01:29:00,61.1,56.2,29.70,WNW,284,2.0,5.0,84,0.04,,,0.06,Wunderground v.1.15,2013-10-13 14:29:00,
2013-10-14 01:35:00,60.8,55.6,29.71,NW,305,2.0,3.0,83,0.04,,,0.06,Wunderground v.1.15,2013-10-13 14:35:00,
2013-10-14 01:40:00,61.0,55.8,29.70,WNW,292,2.0,7.0,83,0.04,,,-99.99,WeatherLink 5.9.3,2013-10-13 14:40:00,
2013-10-14 01:46:00,60.2,54.7,29.72,NW,313,2.0,3.0,82,0.00,,,0.06,Wunderground v.1.15,2013-10-13 14:46:00,
2013-10-14 01:51:00,60.2,54.0,29.71,WNW,283,3.0,4.0,80,0.00,,,0.06,Wunderground v.1.15,2013-10-13 14:51:00,
2013-10-14 01:56:00,60.2,53.7,29.72,West,273,2.0,4.0,79,0.00,,,0.06,Wunderground v.1.15,2013-10-13 14:56:00,
2013-10-14 02:01:00,60.3,54.1,29.73,West,261,3.0,4.0,80,0.00,,,0.06,Wunderground v.1.15,2013-10-13 15:01:00,
2013-10-14 02:07:00,60.3,54.1,29.71,WSW,248,2.0,4.0,80,0.00,,,0.06,Wunderground v.1.15,2013-10-13 15:07:00,
2013-10-14 02:12:00,60.0,54.2,29.71,West,259,2.0,3.0,81,0.00,,,0.07,Wunderground v.1.15,2013-10-13 15:12:00,
2013-10-14 02:17:00,59.7,53.9,29.71,SSE,157,2.0,3.0,81,0.00,,,0.07,Wunderground v.1.15,2013-10-13 15:17:00,
2013-10-14 02:23:00,59.6,53.4,29.71,WNW,289,3.0,5.0,80,0.00,,,0.07,Wunderground v.1.15,2013-10-13 15:23:00,
2013-10-14 02:28:00,59.6,53.4,29.72,NW,305,2.0,5.0,80,0.00,,,0.07,Wunderground v.1.15,2013-10-13 15:28:00,
2013-10-14 02:33:00,59.4,52.9,29.72,WNW,290,1.0,2.0,79,0.00,,,0.07,Wunderground v.1.15,2013-10-13 15:33:00,
2013-10-14 02:38:00,59.2,52.0,29.71,WNW,288,1.0,5.0,77,0.00,,,0.07,Wunderground v.1.15,2013-10-13 15:38:00,
2013-10-14 02:44:00,59.1,51.2,29.71,WNW,290,2.0,4.0,75,0.00,,,0.07,Wunderground v.1.15,2013-10-13 15:44:00,
2013-10-14 02:49:00,59.0,50.4,29.72,WNW,293,1.0,4.0,73,0.00,,,0.07,Wunderground v.1.15,2013-10-13 15:49:00,
2013-10-14 02:54:00,58.9,50.3,29.73,WNW,302,1.0,5.0,73,0.00,,,0.07,Wunderground v.1.15,2013-10-13 15:54:00,
2013-10-14 03:00:00,59.0,50.4,29.73,West,270,2.0,5.0,73,0.01,,,-99.99,WeatherLink 5.9.3,2013-10-13 16:00:00,
2013-10-14 03:06:00,58.6,50.0,29.73,WNW,284,1.0,2.0,73,0.00,,,0.07,Wunderground v.1.15,2013-10-13 16:06:00,
2013-10-14 03:11:00,58.3,49.7,29.73,WNW,282,1.0,2.0,73,0.00,,,0.07,Wunderground v.1.15,2013-10-13 16:11:00,
2013-10-14 03:16:00,58.3,48.6,29.73,West,280,3.0,5.0,70,0.00,,,0.07,Wunderground v.1.15,2013-10-13 16:16:00,
2013-10-14 03:21:00,58.3,47.8,29.73,WNW,290,3.0,4.0,68,0.00,,,0.07,Wunderground v.1.15,2013-10-13 16:21:00,
2013-10-14 03:27:00,58.3,47.4,29.73,SSW,208,3.0,6.0,67,0.00,,,0.07,Wunderground v.1.15,2013-10-13 16:27:00,
2013-10-14 03:32:00,58.1,46.8,29.73,WSW,258,3.0,5.0,66,0.00,,,0.07,Wunderground v.1.15,2013-10-13 16:32:00,
2013-10-14 03:37:00,58.0,46.3,29.73,West,277,3.0,8.0,65,0.00,,,0.07,Wunderground v.1.15,2013-10-13 16:37:00,
2013-10-14 03:42:00,57.9,45.8,29.74,NW,310,3.0,8.0,64,0.00,,,0.07,Wunderground v.1.15,2013-10-13 16:42:00,
2013-10-14 03:48:00,57.8,45.7,29.75,West,265,4.0,8.0,64,0.00,,,0.07,Wunderground v.1.15,2013-10-13 16:48:00,
2013-10-14 03:53:00,57.5,45.8,29.75,West,280,3.0,6.0,65,0.00,,,0.07,Wunderground v.1.15,2013-10-13 16:53:00,
2013-10-14 03:59:00,57.3,45.2,29.75,WSW,240,4.0,8.0,64,0.00,,,0.07,Wunderground v.1.15,2013-10-13 16:59:00,
2013-10-14 04:04:00,57.1,44.6,29.75,WNW,286,4.0,6.0,63,0.00,,,0.07,Wunderground v.1.15,2013-10-13 17:04:00,
2013-10-14 04:09:00,57.0,44.9,29.75,West,273,3.0,6.0,64,0.00,,,0.07,Wunderground v.1.15,2013-10-13 17:09:00,
2013-10-14 04:15:00,56.8,44.7,29.75,WNW,283,2.0,5.0,64,0.00,,,0.07,Wunderground v.1.15,2013-10-13 17:15:00,
2013-10-14 04:20:00,56.9,44.8,29.76,WNW,292,3.0,8.0,64,0.00,,,-99.99,WeatherLink 5.9.3,2013-10-13 17:20:00,
2013-10-14 04:26:00,56.7,44.2,29.76,WNW,298,4.0,7.0,63,0.00,,,0.07,Wunderground v.1.15,2013-10-13 17:26:00,
2013-10-14 04:32:00,56.5,44.0,29.76,WNW,293,4.0,4.0,63,0.00,,,0.07,Wunderground v.1.15,2013-10-13 17:32:00,
2013-10-14 04:37:00,56.5,44.0,29.77,West,276,4.0,8.0,63,0.00,,,0.07,Wunderground v.1.15,2013-10-13 17:37:00,
2013-10-14 04:43:00,56.5,44.0,29.77,WNW,285,4.0,7.0,63,0.00,,,0.07,Wunderground v.1.15,2013-10-13 17:43:00,
2013-10-14 04:48:00,56.3,43.9,29.77,NW,322,3.0,7.0,63,0.00,,,0.07,Wunderground v.1.15,2013-10-13 17:48:00,
2013-10-14 04:54:00,56.2,43.8,29.78,WSW,252,2.0,5.0,63,0.00,,,0.07,Wunderground v.1.15,2013-10-13 17:54:00,
2013-10-14 04:59:00,56.1,44.1,29.78,NW,305,2.0,5.0,64,0.00,,,0.07,Wunderground v.1.15,2013-10-13 17:59:00,
2013-10-14 05:04:00,56.0,44.0,29.78,NW,311,2.0,4.0,64,0.00,,,0.07,Wunderground v.1.15,2013-10-13 18:04:00,
2013-10-14 05:10:00,56.0,43.6,29.78,WNW,292,2.0,5.0,63,0.00,,,-99.99,WeatherLink 5.9.3,2013-10-13 18:10:00,
2013-10-14 05:16:00,55.6,43.6,29.79,West,270,1.0,3.0,64,0.00,,,0.07,Wunderground v.1.15,2013-10-13 18:16:00,
2013-10-14 05:21:00,55.7,43.7,29.79,NW,307,2.0,2.0,64,0.00,,,0.07,Wunderground v.1.15,2013-10-13 18:21:00,
2013-10-14 05:26:00,55.5,43.5,29.80,West,266,1.0,2.0,64,0.00,,,0.07,Wunderground v.1.15,2013-10-13 18:26:00,
2013-10-14 05:32:00,55.7,43.7,29.80,NW,308,2.0,3.0,64,0.00,,,0.07,Wunderground v.1.15,2013-10-13 18:32:00,
2013-10-14 05:37:00,55.9,43.5,29.80,WNW,290,2.0,4.0,63,0.00,,,0.07,Wunderground v.1.15,2013-10-13 18:37:00,
2013-10-14 05:42:00,55.9,43.5,29.81,WNW,290,2.0,3.0,63,0.00,,,0.07,Wunderground v.1.15,2013-10-13 18:42:00,
2013-10-14 05:48:00,55.7,43.3,29.81,WNW,290,1.0,3.0,63,0.00,,,0.07,Wunderground v.1.15,2013-10-13 18:48:00,
2013-10-14 05:53:00,55.5,43.1,29.81,WNW,288,0.0,1.0,63,0.00,,,0.07,Wunderground v.1.15,2013-10-13 18:53:00,
2013-10-14 05:59:00,55.2,42.8,29.81,WNW,293,1.0,4.0,63,0.00,,,0.07,Wunderground v.1.15,2013-10-13 18:59:00,
2013-10-14 06:04:00,55.3,43.3,29.82,NW,306,1.0,1.0,64,0.00,,,0.07,Wunderground v.1.15,2013-10-13 19:04:00,
2013-10-14 06:09:00,55.2,43.2,29.82,WSW,249,1.0,1.0,64,0.00,,,0.07,Wunderground v.1.15,2013-10-13 19:09:00,
2013-10-14 06:15:00,54.9,43.4,29.83,WNW,298,0.0,1.0,65,0.00,,,0.07,Wunderground v.1.15,2013-10-13 19:15:00,
2013-10-14 06:20:00,55.1,43.1,29.83,West,270,0.0,1.0,64,0.00,,,-99.99,WeatherLink 5.9.3,2013-10-13 19:20:00,
2013-10-14 06:26:00,53.6,43.7,29.84,NW,319,0.0,1.0,69,0.00,,,0.07,Wunderground v.1.15,2013-10-13 19:26:00,
2013-10-14 06:31:00,53.1,43.9,29.85,NW,319,0.0,0.0,71,0.00,,,0.07,Wunderground v.1.15,2013-10-13 19:31:00,
2013-10-14 06:37:00,52.6,43.8,29.85,West,259,0.0,0.0,72,0.00,,,0.07,Wunderground v.1.15,2013-10-13 19:37:00,
2013-10-14 06:42:00,52.4,44.4,29.86,West,259,0.0,0.0,74,0.00,,,0.07,Wunderground v.1.15,2013-10-13 19:42:00,
2013-10-14 06:47:00,52.0,44.3,29.86,West,259,0.0,0.0,75,0.00,,,0.07,Wunderground v.1.15,2013-10-13 19:47:00,
2013-10-14 06:53:00,51.7,44.7,29.87,West,259,0.0,0.0,77,0.00,,,0.07,Wunderground v.1.15,2013-10-13 19:53:00,
2013-10-14 06:58:00,51.6,45.0,29.87,West,259,0.0,0.0,78,0.00,,,0.07,Wunderground v.1.15,2013-10-13 19:58:00,
2013-10-14 07:03:00,51.4,45.1,29.88,West,259,0.0,0.0,79,0.00,,,0.07,Wunderground v.1.15,2013-10-13 20:03:00,
2013-10-14 07:09:00,51.8,44.1,29.88,WNW,293,0.0,1.0,75,0.00,,,0.07,Wunderground v.1.15,2013-10-13 20:09:00,
2013-10-14 07:14:00,52.9,44.1,29.89,WNW,285,0.0,1.0,72,0.00,,,0.07,Wunderground v.1.15,2013-10-13 20:14:00,
2013-10-14 07:19:00,53.7,43.8,29.89,West,270,0.0,1.0,69,0.00,,,0.07,Wunderground v.1.15,2013-10-13 20:19:00,
2013-10-14 07:25:00,54.3,44.0,29.89,NW,306,0.0,1.0,68,0.00,,,0.07,Wunderground v.1.15,2013-10-13 20:25:00,
2013-10-14 07:30:00,54.0,43.7,29.89,WNW,292,1.0,2.0,68,0.00,,,-99.99,WeatherLink 5.9.3,2013-10-13 20:30:00,
2013-10-14 07:36:00,54.7,44.0,29.90,WNW,285,0.0,0.0,67,0.00,,,0.07,Wunderground v.1.15,2013-10-13 20:36:00,
2013-10-14 07:41:00,54.8,44.4,29.91,West,274,0.0,0.0,68,0.00,,,0.07,Wunderground v.1.15,2013-10-13 20:41:00,
2013-10-14 07:47:00,55.1,45.1,29.91,WNW,285,0.0,1.0,69,0.00,,,0.07,Wunderground v.1.15,2013-10-13 20:47:00,
2013-10-14 07:52:00,56.9,46.1,29.91,WNW,285,0.0,0.0,67,0.00,,,0.07,Wunderground v.1.15,2013-10-13 20:52:00,
2013-10-14 07:58:00,59.1,45.7,29.91,WNW,283,0.0,2.0,61,0.00,,,0.07,Wunderground v.1.15,2013-10-13 20:58:00,
2013-10-14 08:03:00,60.1,45.7,29.92,WNW,297,1.0,4.0,59,0.00,,,0.07,Wunderground v.1.15,2013-10-13 21:03:00,
2013-10-14 08:08:00,61.1,45.3,29.92,West,277,1.0,4.0,56,0.00,,,0.07,Wunderground v.1.15,2013-10-13 21:08:00,
2013-10-14 08:13:00,61.6,44.8,29.92,WNW,303,2.0,4.0,54,0.00,,,0.07,Wunderground v.1.15,2013-10-13 21:13:00,
2013-10-14 08:19:00,62.1,45.7,29.92,West,270,2.0,4.0,55,0.00,,,0.07,Wunderground v.1.15,2013-10-13 21:19:00,
2013-10-14 08:24:00,62.3,44.4,29.92,SSW,207,2.0,5.0,52,0.00,,,0.07,Wunderground v.1.15,2013-10-13 21:24:00,
2013-10-14 08:30:00,62.3,44.4,29.92,NW,315,2.0,6.0,52,0.00,,,-99.99,WeatherLink 5.9.3,2013-10-13 21:30:00,
2013-10-14 08:45:00,63.8,44.3,29.93,WNW,291,2.0,4.0,49,0.00,,,0.07,Wunderground v.1.15,2013-10-13 21:45:00,
2013-10-14 08:50:00,62.4,44.5,29.92,WNW,292,2.0,7.0,52,0.00,,,-99.99,WeatherLink 5.9.3,2013-10-13 21:50:00,
2013-10-14 08:56:00,63.6,44.1,29.94,SSW,197,4.0,4.0,49,0.00,,,0.07,Wunderground v.1.15,2013-10-13 21:56:00,
2013-10-14 09:01:00,64.2,44.1,29.94,South,172,3.0,3.0,48,0.00,,,0.07,Wunderground v.1.15,2013-10-13 22:01:00,
2013-10-14 09:06:00,64.9,43.6,29.95,West,271,2.0,3.0,46,0.00,,,0.07,Wunderground v.1.15,2013-10-13 22:06:00,
2013-10-14 09:12:00,64.9,44.2,29.95,SE,145,2.0,2.0,47,0.00,,,0.07,Wunderground v.1.15,2013-10-13 22:12:00,
2013-10-14 09:17:00,65.5,44.2,29.96,West,264,2.0,5.0,46,0.00,,,0.07,Wunderground v.1.15,2013-10-13 22:17:00,
2013-10-14 09:22:00,65.1,44.4,29.96,SW,227,2.0,2.0,47,0.00,,,0.07,Wunderground v.1.15,2013-10-13 22:22:00,
2013-10-14 09:27:00,64.1,42.3,29.96,WNW,299,2.0,4.0,45,0.00,,,0.07,Wunderground v.1.15,2013-10-13 22:27:00,
2013-10-14 09:32:00,63.5,42.9,29.96,WSW,254,2.0,2.0,47,0.00,,,0.07,Wunderground v.1.15,2013-10-13 22:32:00,
2013-10-14 09:38:00,64.0,43.9,29.97,NW,305,2.0,2.0,48,0.00,,,0.07,Wunderground v.1.15,2013-10-13 22:38:00,
2013-10-14 09:43:00,63.8,43.2,29.97,NNW,339,1.0,1.0,47,0.00,,,0.07,Wunderground v.1.15,2013-10-13 22:43:00,
2013-10-14 09:49:00,63.7,41.9,29.97,SSE,167,1.0,5.0,45,0.00,,,0.07,Wunderground v.1.15,2013-10-13 22:49:00,
2013-10-14 09:54:00,63.6,41.3,29.97,WNW,285,1.0,2.0,44,0.00,,,0.07,Wunderground v.1.15,2013-10-13 22:54:00,
2013-10-14 09:59:00,63.4,43.4,29.97,WSW,257,1.0,4.0,48,0.00,,,0.07,Wunderground v.1.15,2013-10-13 22:59:00,
2013-10-14 10:05:00,63.4,41.1,29.97,WNW,301,1.0,3.0,44,0.00,,,0.07,Wunderground v.1.15,2013-10-13 23:05:00,
2013-10-14 10:10:00,63.4,41.1,29.97,West,270,1.0,4.0,44,0.00,,,-99.99,WeatherLink 5.9.3,2013-10-13 23:10:00,
2013-10-14 10:16:00,64.3,41.9,29.97,WSW,250,1.0,4.0,44,0.00,,,0.07,Wunderground v.1.15,2013-10-13 23:16:00,
2013-10-14 10:22:00,63.7,41.4,29.98,SSW,213,2.0,2.0,44,0.00,,,0.07,Wunderground v.1.15,2013-10-13 23:22:00,
2013-10-14 10:27:00,64.7,42.9,29.98,West,270,2.0,3.0,45,0.00,,,0.07,Wunderground v.1.15,2013-10-13 23:27:00,
2013-10-14 10:33:00,66.0,41.6,29.98,WSW,250,2.0,6.0,41,0.00,,,0.07,Wunderground v.1.15,2013-10-13 23:33:00,
2013-10-14 10:38:00,66.4,42.0,29.98,SSE,160,3.0,6.0,41,0.00,,,0.07,Wunderground v.1.15,2013-10-13 23:38:00,
2013-10-14 10:43:00,67.6,43.7,29.98,South,172,3.0,3.0,42,0.00,,,0.07,Wunderground v.1.15,2013-10-13 23:43:00,
2013-10-14 10:49:00,68.3,41.7,29.98,SSW,209,2.0,3.0,38,0.00,,,0.07,Wunderground v.1.15,2013-10-13 23:49:00,
2013-10-14 10:54:00,68.0,42.1,29.98,WNW,297,1.0,3.0,39,0.00,,,0.07,Wunderground v.1.15,2013-10-13 23:54:00,
2013-10-14 10:59:00,66.6,41.5,29.98,West,278,2.0,3.0,40,0.00,,,0.07,Wunderground v.1.15,2013-10-13 23:59:00,
2013-10-14 11:04:00,65.5,41.2,29.98,WSW,243,2.0,3.0,41,0.00,,,0.07,Wunderground v.1.15,2013-10-14 00:04:00,
2013-10-14 11:10:00,66.1,41.1,29.98,WNW,292,2.0,7.0,40,0.00,,,-99.99,WeatherLink 5.9.3,2013-10-14 00:10:00,
2013-10-14 11:16:00,66.6,41.5,29.98,SE,141,1.0,3.0,40,0.00,,,0.07,Wunderground v.1.15,2013-10-14 00:16:00,
2013-10-14 11:22:00,67.7,41.8,29.97,WSW,238,2.0,2.0,39,0.00,,,0.07,Wunderground v.1.15,2013-10-14 00:22:00,
2013-10-14 11:27:00,68.5,43.9,29.97,SSE,148,2.0,5.0,41,0.00,,,0.07,Wunderground v.1.15,2013-10-14 00:27:00,
2013-10-14 11:32:00,67.2,42.0,29.97,SW,236,2.0,3.0,40,0.00,,,0.07,Wunderground v.1.15,2013-10-14 00:32:00,
2013-10-14 11:38:00,66.3,40.6,29.97,West,271,2.0,4.0,39,0.00,,,0.07,Wunderground v.1.15,2013-10-14 00:38:00,
2013-10-14 11:43:00,67.5,44.2,29.97,WSW,257,2.0,3.0,43,0.00,,,0.07,Wunderground v.1.15,2013-10-14 00:43:00,
2013-10-14 11:48:00,68.7,42.1,29.97,West,276,2.0,3.0,38,0.00,,,0.07,Wunderground v.1.15,2013-10-14 00:48:00,
2013-10-14 11:54:00,68.9,42.2,29.96,NW,322,2.0,5.0,38,0.00,,,0.07,Wunderground v.1.15,2013-10-14 00:54:00,
2013-10-14 11:59:00,68.7,41.4,29.96,NW,306,2.0,6.0,37,0.00,,,0.07,Wunderground v.1.15,2013-10-14 00:59:00,
2013-10-14 12:04:00,68.1,41.5,29.96,WNW,283,2.0,4.0,38,0.00,,,0.07,Wunderground v.1.15,2013-10-14 01:04:00,
2013-10-14 12:10:00,68.3,41.7,29.96,WNW,292,2.0,7.0,38,0.00,,,-99.99,WeatherLink 5.9.3,2013-10-14 01:10:00,
2013-10-14 12:16:00,68.9,42.2,29.95,NNE,25,2.0,4.0,38,0.00,,,0.07,Wunderground v.1.15,2013-10-14 01:16:00,
2013-10-14 12:22:00,68.7,43.4,29.95,SSW,204,1.0,1.0,40,0.00,,,0.07,Wunderground v.1.15,2013-10-14 01:22:00,
2013-10-14 12:27:00,69.4,42.7,29.95,SW,236,2.0,5.0,38,0.00,,,0.07,Wunderground v.1.15,2013-10-14 01:27:00,
2013-10-14 12:33:00,70.2,43.4,29.95,West,278,2.0,3.0,38,0.00,,,0.07,Wunderground v.1.15,2013-10-14 01:33:00,
2013-10-14 12:38:00,69.8,42.3,29.95,NE,55,2.0,4.0,37,0.00,,,0.07,Wunderground v.1.15,2013-10-14 01:38:00,
2013-10-14 12:43:00,69.3,42.6,29.95,WNW,297,2.0,3.0,38,0.00,,,0.07,Wunderground v.1.15,2013-10-14 01:43:00,
2013-10-14 12:49:00,70.0,45.8,29.95,NE,52,1.0,3.0,42,0.00,,,0.07,Wunderground v.1.15,2013-10-14 01:49:00,
2013-10-14 12:54:00,70.2,42.0,29.94,SSE,155,1.0,2.0,36,0.00,,,0.07,Wunderground v.1.15,2013-10-14 01:54:00,
2013-10-14 13:00:00,70.1,41.2,29.95,ENE,67,1.0,3.0,35,0.00,,,-99.99,WeatherLink 5.9.3,2013-10-14 02:00:00,
2013-10-14 13:06:00,70.6,43.7,29.94,East,99,1.0,2.0,38,0.00,,,0.07,Wunderground v.1.15,2013-10-14 02:06:00,
2013-10-14 13:11:00,71.1,43.5,29.94,South,188,1.0,5.0,37,0.00,,,0.07,Wunderground v.1.15,2013-10-14 02:11:00,
2013-10-14 13:17:00,71.3,45.1,29.94,SE,124,2.0,5.0,39,0.00,,,0.07,Wunderground v.1.15,2013-10-14 02:17:00,
2013-10-14 13:22:00,71.3,42.2,29.94,West,264,1.0,2.0,35,0.00,,,0.07,Wunderground v.1.15,2013-10-14 02:22:00,
2013-10-14 13:27:00,71.6,43.9,29.93,SE,146,2.0,4.0,37,0.00,,,0.07,Wunderground v.1.15,2013-10-14 02:27:00,
2013-10-14 13:33:00,72.0,42.8,29.93,NNE,27,2.0,4.0,35,0.00,,,0.07,Wunderground v.1.15,2013-10-14 02:33:00,
2013-10-14 13:38:00,71.6,44.6,29.93,NW,319,2.0,4.0,38,0.00,,,0.07,Wunderground v.1.15,2013-10-14 02:38:00,
2013-10-14 13:44:00,72.4,43.9,29.93,SSE,155,2.0,2.0,36,0.00,,,0.07,Wunderground v.1.15,2013-10-14 02:44:00,
2013-10-14 13:49:00,72.7,41.1,29.93,NNE,25,2.0,6.0,32,0.00,,,0.07,Wunderground v.1.15,2013-10-14 02:49:00,
2013-10-14 13:54:00,72.5,41.0,29.93,NE,55,2.0,4.0,32,0.00,,,0.07,Wunderground v.1.15,2013-10-14 02:54:00,
2013-10-14 14:00:00,72.5,40.1,29.93,NNE,22,2.0,5.0,31,0.00,,,-99.99,WeatherLink 5.9.3,2013-10-14 03:00:00,
2013-10-14 14:06:00,72.4,39.2,29.93,NNE,31,2.0,3.0,30,0.00,,,0.07,Wunderground v.1.15,2013-10-14 03:06:00,
2013-10-14 14:11:00,72.8,40.4,29.92,NNE,22,2.0,5.0,31,0.00,,,0.07,Wunderground v.1.15,2013-10-14 03:11:00,
2013-10-14 14:17:00,73.0,41.4,29.92,NW,322,3.0,5.0,32,0.00,,,0.07,Wunderground v.1.15,2013-10-14 03:17:00,
2013-10-14 14:22:00,72.6,38.5,29.92,ESE,108,3.0,3.0,29,0.00,,,0.07,Wunderground v.1.15,2013-10-14 03:22:00,
2013-10-14 14:27:00,72.8,39.5,29.92,NNW,347,2.0,3.0,30,0.00,,,0.07,Wunderground v.1.15,2013-10-14 03:27:00,
2013-10-14 14:33:00,72.8,38.7,29.92,NE,37,1.0,5.0,29,0.00,,,0.07,Wunderground v.1.15,2013-10-14 03:33:00,
2013-10-14 14:38:00,72.9,36.9,29.92,West,278,2.0,5.0,27,0.00,,,0.07,Wunderground v.1.15,2013-10-14 03:38:00,
2013-10-14 14:43:00,72.8,37.8,29.92,WNW,293,2.0,5.0,28,0.00,,,0.07,Wunderground v.1.15,2013-10-14 03:43:00,
2013-10-14 14:49:00,73.3,39.1,29.91,SSW,205,3.0,5.0,29,0.00,,,0.07,Wunderground v.1.15,2013-10-14 03:49:00,
2013-10-14 14:54:00,73.5,37.5,29.91,SSE,164,2.0,3.0,27,0.00,,,0.07,Wunderground v.1.15,2013-10-14 03:54:00,
2013-10-14 14:59:00,73.6,38.5,29.91,NW,322,2.0,6.0,28,0.00,,,0.07,Wunderground v.1.15,2013-10-14 03:59:00,
2013-10-14 15:01:00,73.7,37.6,29.91,West,281,3.0,3.0,27,0.00,,,0.07,Wunderground v.1.15,2013-10-14 04:01:00,
2013-10-14 15:02:00,73.7,35.7,29.91,ENE,64,3.0,3.0,25,0.00,,,0.07,Wunderground v.1.15,2013-10-14 04:02:00,
2013-10-14 15:03:00,73.7,38.6,29.91,WNW,300,3.0,3.0,28,0.00,,,0.07,Wunderground v.1.15,2013-10-14 04:03:00,
2013-10-14 15:04:00,73.9,39.6,29.91,NNW,343,2.0,3.0,29,0.00,,,0.07,Wunderground v.1.15,2013-10-14 04:04:00,
2013-10-14 15:05:00,74.0,36.9,29.91,NE,39,2.0,3.0,26,0.00,,,0.07,Wunderground v.1.15,2013-10-14 04:05:00,
2013-10-14 15:10:00,73.7,37.6,29.91,West,270,3.0,7.0,27,0.00,,,-99.99,WeatherLink 5.9.3,2013-10-14 04:10:00,
2013-10-14 15:16:00,75.1,37.9,29.90,WNW,293,2.0,4.0,26,0.00,,,0.07,Wunderground v.1.15,2013-10-14 04:16:00,
2013-10-14 15:21:00,75.6,36.2,29.90,SW,236,2.0,2.0,24,0.00,,,0.07,Wunderground v.1.15,2013-10-14 04:21:00,
2013-10-14 15:26:00,75.9,34.3,29.90,NNW,338,1.0,2.0,22,0.00,,,0.07,Wunderground v.1.15,2013-10-14 04:26:00,
2013-10-14 15:32:00,76.0,35.5,29.91,NNE,21,1.0,3.0,23,0.00,,,0.07,Wunderground v.1.15,2013-10-14 04:32:00,
2013-10-14 15:37:00,73.2,45.4,29.91,NE,51,3.0,9.0,37,0.00,,,0.07,Wunderground v.1.15,2013-10-14 04:37:00,
2013-10-14 15:42:00,70.9,46.0,29.91,North,356,5.0,6.0,41,0.00,,,0.07,Wunderground v.1.15,2013-10-14 04:42:00,
2013-10-14 15:47:00,69.9,46.4,29.91,ESE,106,5.0,8.0,43,0.00,,,0.07,Wunderground v.1.15,2013-10-14 04:47:00,
2013-10-14 15:53:00,69.3,45.8,29.91,SSE,164,4.0,8.0,43,0.00,,,0.07,Wunderground v.1.15,2013-10-14 04:53:00,
2013-10-14 15:58:00,68.7,46.5,29.91,ENE,58,4.0,8.0,45,0.00,,,0.07,Wunderground v.1.15,2013-10-14 04:58:00,
2013-10-14 16:03:00,68.5,46.3,29.91,East,89,3.0,4.0,45,0.00,,,0.07,Wunderground v.1.15,2013-10-14 05:03:00,
2013-10-14 16:09:00,68.1,45.9,29.92,East,98,3.0,6.0,45,0.00,,,0.07,Wunderground v.1.15,2013-10-14 05:09:00,
2013-10-14 16:14:00,67.6,46.6,29.92,SE,141,4.0,6.0,47,0.00,,,0.07,Wunderground v.1.15,2013-10-14 05:14:00,
2013-10-14 16:19:00,67.5,46.0,29.92,East,91,4.0,6.0,46,0.00,,,0.07,Wunderground v.1.15,2013-10-14 05:19:00,
2013-10-14 16:25:00,66.9,45.4,29.92,NE,45,4.0,4.0,46,0.00,,,0.07,Wunderground v.1.15,2013-10-14 05:25:00,
2013-10-14 16:30:00,67.4,46.5,29.92,ENE,67,3.0,8.0,47,0.00,,,-99.99,WeatherLink 5.9.3,2013-10-14 05:30:00,
2013-10-14 16:36:00,66.3,46.0,29.92,ENE,75,4.0,6.0,48,0.00,,,0.07,Wunderground v.1.15,2013-10-14 05:36:00,
2013-10-14 16:41:00,65.6,45.9,29.93,ENE,69,4.0,6.0,49,0.00,,,0.07,Wunderground v.1.15,2013-10-14 05:41:00,
2013-10-14 16:46:00,65.3,46.2,29.93,SE,135,4.0,6.0,50,0.00,,,0.07,Wunderground v.1.15,2013-10-14 05:46:00,
2013-10-14 16:52:00,65.4,46.3,29.93,SE,139,4.0,8.0,50,0.00,,,0.07,Wunderground v.1.15,2013-10-14 05:52:00,
2013-10-14 16:57:00,65.6,45.9,29.93,SE,136,3.0,8.0,49,0.00,,,0.07,Wunderground v.1.15,2013-10-14 05:57:00,
2013-10-14 17:02:00,65.3,45.6,29.94,SE,136,3.0,4.0,49,0.00,,,0.07,Wunderground v.1.15,2013-10-14 06:02:00,
2013-10-14 17:07:00,65.1,46.0,29.94,ENE,58,4.0,8.0,50,0.00,,,0.07,Wunderground v.1.15,2013-10-14 06:07:00,
2013-10-14 17:13:00,65.0,45.9,29.94,ENE,62,4.0,4.0,50,0.00,,,0.07,Wunderground v.1.15,2013-10-14 06:13:00,
2013-10-14 17:19:00,65.1,46.0,29.94,South,177,3.0,5.0,50,0.00,,,0.07,Wunderground v.1.15,2013-10-14 06:19:00,
2013-10-14 17:24:00,65.0,45.9,29.94,SSE,160,3.0,9.0,50,0.00,,,0.07,Wunderground v.1.15,2013-10-14 06:24:00,
2013-10-14 17:29:00,64.7,45.6,29.95,NE,46,4.0,9.0,50,0.00,,,0.07,Wunderground v.1.15,2013-10-14 06:29:00,
2013-10-14 17:35:00,64.6,45.0,29.95,SE,136,4.0,7.0,49,0.00,,,0.07,Wunderground v.1.15,2013-10-14 06:35:00,
2013-10-14 17:40:00,64.8,45.7,29.95,SSE,157,3.0,6.0,50,0.00,,,-99.99,WeatherLink 5.9.3,2013-10-14 06:40:00,
2013-10-14 17:46:00,63.9,44.9,29.96,SE,130,3.0,4.0,50,0.00,,,0.07,Wunderground v.1.15,2013-10-14 06:46:00,
2013-10-14 17:51:00,63.4,44.9,29.96,SE,138,4.0,4.0,51,0.00,,,0.07,Wunderground v.1.15,2013-10-14 06:51:00,
2013-10-14 17:56:00,63.3,45.4,29.96,ESE,112,4.0,4.0,52,0.00,,,0.07,Wunderground v.1.15,2013-10-14 06:56:00,
2013-10-14 18:02:00,63.0,45.1,29.97,East,84,3.0,3.0,52,0.00,,,0.07,Wunderground v.1.15,2013-10-14 07:02:00,
2013-10-14 18:07:00,62.6,44.7,29.98,ENE,65,3.0,9.0,52,0.00,,,0.07,Wunderground v.1.15,2013-10-14 07:07:00,
2013-10-14 18:13:00,62.5,45.1,29.98,ESE,111,3.0,3.0,53,0.00,,,0.07,Wunderground v.1.15,2013-10-14 07:13:00,
2013-10-14 18:18:00,62.2,44.9,29.98,SE,129,2.0,3.0,53,0.00,,,0.07,Wunderground v.1.15,2013-10-14 07:18:00,
2013-10-14 18:24:00,62.2,45.3,29.98,SSE,150,2.0,4.0,54,0.00,,,0.07,Wunderground v.1.15,2013-10-14 07:24:00,
2013-10-14 18:29:00,62.0,45.2,29.98,SSW,195,2.0,4.0,54,0.00,,,0.07,Wunderground v.1.15,2013-10-14 07:29:00,
2013-10-14 18:34:00,61.4,44.6,29.99,SE,127,2.0,2.0,54,0.00,,,0.07,Wunderground v.1.15,2013-10-14 07:34:00,
2013-10-14 18:40:00,61.8,45.0,29.99,SSE,157,2.0,4.0,54,0.00,,,-99.99,WeatherLink 5.9.3,2013-10-14 07:40:00,
2013-10-14 18:46:00,60.4,44.6,30.00,ESE,104,2.0,4.0,56,0.00,,,0.07,Wunderground v.1.15,2013-10-14 07:46:00,
2013-10-14 18:52:00,60.0,44.7,30.00,SSE,153,1.0,3.0,57,0.00,,,0.07,Wunderground v.1.15,2013-10-14 07:52:00,
2013-10-14 18:57:00,59.7,44.9,30.01,SSE,153,1.0,3.0,58,0.00,,,0.07,Wunderground v.1.15,2013-10-14 07:57:00,
2013-10-14 19:03:00,59.3,45.0,30.01,SSE,167,1.0,1.0,59,0.00,,,0.07,Wunderground v.1.15,2013-10-14 08:03:00,
2013-10-14 19:08:00,58.9,44.6,30.01,SSE,167,1.0,2.0,59,0.00,,,0.07,Wunderground v.1.15,2013-10-14 08:08:00,
2013-10-14 19:13:00,58.5,44.7,30.02,SE,139,0.0,0.0,60,0.00,,,0.07,Wunderground v.1.15,2013-10-14 08:13:00,
2013-10-14 19:19:00,58.2,44.8,30.02,ENE,60,0.0,2.0,61,0.00,,,0.07,Wunderground v.1.15,2013-10-14 08:19:00,
2013-10-14 19:24:00,57.9,44.5,30.02,SSE,161,0.0,0.0,61,0.00,,,0.07,Wunderground v.1.15,2013-10-14 08:24:00,
2013-10-14 19:29:00,57.6,44.7,30.03,SSE,166,0.0,0.0,62,0.00,,,0.07,Wunderground v.1.15,2013-10-14 08:29:00,
2013-10-14 19:35:00,57.2,44.3,30.03,SSE,166,0.0,0.0,62,0.00,,,0.07,Wunderground v.1.15,2013-10-14 08:35:00,
2013-10-14 19:40:00,57.5,44.6,30.03,SSE,157,0.0,1.0,62,0.00,,,-99.99,WeatherLink 5.9.3,2013-10-14 08:40:00,
2013-10-14 19:46:00,56.0,44.0,30.04,SSE,165,0.0,0.0,64,0.00,,,0.07,Wunderground v.1.15,2013-10-14 08:46:00,
2013-10-14 19:51:00,55.3,44.1,30.05,SSE,166,0.0,0.0,66,0.00,,,0.07,Wunderground v.1.15,2013-10-14 08:51:00,
2013-10-14 19:56:00,54.9,44.5,30.06,SSE,166,0.0,0.0,68,0.00,,,0.07,Wunderground v.1.15,2013-10-14 08:56:00,
2013-10-14 20:01:00,54.3,44.3,30.06,SSE,165,0.0,0.0,69,0.00,,,0.07,Wunderground v.1.15,2013-10-14 09:01:00,
2013-10-14 20:07:00,53.7,44.1,30.07,SSE,166,0.0,0.0,70,0.00,,,0.07,Wunderground v.1.15,2013-10-14 09:07:00,
2013-10-14 20:12:00,53.1,43.9,30.07,SSE,166,0.0,0.0,71,0.00,,,0.07,Wunderground v.1.15,2013-10-14 09:12:00,
2013-10-14 20:17:00,52.6,43.8,30.08,SSE,165,0.0,0.0,72,0.00,,,0.07,Wunderground v.1.15,2013-10-14 09:17:00,
2013-10-14 20:23:00,52.2,43.8,30.08,SSE,166,0.0,0.0,73,0.00,,,0.07,Wunderground v.1.15,2013-10-14 09:23:00,
2013-10-14 20:28:00,52.5,44.4,30.08,SSE,165,0.0,0.0,74,0.00,,,0.07,Wunderground v.1.15,2013-10-14 09:28:00,
2013-10-14 20:34:00,52.8,45.1,30.09,SSE,166,0.0,0.0,75,0.00,,,0.07,Wunderground v.1.15,2013-10-14 09:34:00,
2013-10-14 20:39:00,53.2,45.5,30.09,SSE,166,0.0,0.0,75,0.00,,,0.07,Wunderground v.1.15,2013-10-14 09:39:00,
2013-10-14 20:44:00,53.7,45.6,30.10,SSE,166,0.0,0.0,74,0.00,,,0.07,Wunderground v.1.15,2013-10-14 09:44:00,
2013-10-14 20:49:00,53.8,45.3,30.10,SSE,166,0.0,0.0,73,0.00,,,0.07,Wunderground v.1.15,2013-10-14 09:49:00,
2013-10-14 20:55:00,53.7,45.2,30.10,SSE,166,0.0,0.0,73,0.00,,,0.07,Wunderground v.1.15,2013-10-14 09:55:00,
2013-10-14 21:00:00,53.7,45.6,30.10,North,-999,0.0,0.0,74,0.00,,,-99.99,WeatherLink 5.9.3,2013-10-14 10:00:00,
2013-10-14 21:06:00,53.4,45.0,30.11,SSE,166,0.0,0.0,73,0.00,,,0.07,Wunderground v.1.15,2013-10-14 10:06:00,
2013-10-14 21:11:00,53.1,45.4,30.11,SSE,166,0.0,0.0,75,0.00,,,0.07,Wunderground v.1.15,2013-10-14 10:11:00,
2013-10-14 21:16:00,52.9,45.2,30.12,SSE,166,0.0,0.0,75,0.00,,,0.07,Wunderground v.1.15,2013-10-14 10:16:00,
2013-10-14 21:22:00,52.5,44.8,30.12,SSE,166,0.0,0.0,75,0.00,,,0.07,Wunderground v.1.15,2013-10-14 10:22:00,
2013-10-14 21:27:00,52.4,44.7,30.12,SSE,166,0.0,0.0,75,0.00,,,0.07,Wunderground v.1.15,2013-10-14 10:27:00,
2013-10-14 21:32:00,52.3,45.0,30.13,SSE,165,0.0,0.0,76,0.00,,,0.07,Wunderground v.1.15,2013-10-14 10:32:00,
2013-10-14 21:38:00,52.1,45.1,30.13,SSE,166,0.0,0.0,77,0.00,,,0.07,Wunderground v.1.15,2013-10-14 10:38:00,
2013-10-14 21:43:00,52.0,45.4,30.13,SSE,165,0.0,0.0,78,0.00,,,0.07,Wunderground v.1.15,2013-10-14 10:43:00,
2013-10-14 21:48:00,51.9,45.3,30.13,SSE,166,0.0,0.0,78,0.00,,,0.07,Wunderground v.1.15,2013-10-14 10:48:00,
2013-10-14 21:54:00,51.8,45.2,30.13,SSE,166,0.0,0.0,78,0.00,,,0.07,Wunderground v.1.15,2013-10-14 10:54:00,
2013-10-14 21:59:00,51.8,45.8,30.13,SSE,166,0.0,0.0,80,0.00,,,0.07,Wunderground v.1.15,2013-10-14 10:59:00,
2013-10-14 22:04:00,51.8,45.8,30.13,SSE,166,0.0,0.0,80,0.00,,,0.07,Wunderground v.1.15,2013-10-14 11:04:00,
2013-10-14 22:10:00,51.8,45.8,30.13,North,-999,0.0,0.0,80,0.00,,,-99.99,WeatherLink 5.9.3,2013-10-14 11:10:00,
2013-10-14 22:16:00,51.7,45.7,30.14,SSE,166,0.0,0.0,80,0.00,,,0.07,Wunderground v.1.15,2013-10-14 11:16:00,
2013-10-14 22:21:00,51.6,45.3,30.14,SSE,165,0.0,0.0,79,0.00,,,0.07,Wunderground v.1.15,2013-10-14 11:21:00,
2013-10-14 22:26:00,51.2,44.9,30.14,SSE,166,0.0,0.0,79,0.00,,,0.07,Wunderground v.1.15,2013-10-14 11:26:00,
2013-10-14 22:31:00,51.0,45.0,30.14,SSE,166,0.0,0.0,80,0.00,,,0.07,Wunderground v.1.15,2013-10-14 11:31:00,
2013-10-14 22:37:00,50.7,44.8,30.14,SSE,166,0.0,0.0,80,0.00,,,0.07,Wunderground v.1.15,2013-10-14 11:37:00,
2013-10-14 22:42:00,50.5,44.6,30.15,SSE,166,0.0,0.0,80,0.00,,,0.07,Wunderground v.1.15,2013-10-14 11:42:00,
2013-10-14 22:47:00,50.3,44.4,30.14,SSE,165,0.0,0.0,80,0.00,,,0.07,Wunderground v.1.15,2013-10-14 11:47:00,
2013-10-14 22:53:00,49.9,44.6,30.14,SSE,164,0.0,0.0,82,0.00,,,0.07,Wunderground v.1.15,2013-10-14 11:53:00,
2013-10-14 22:58:00,49.5,44.6,30.14,South,175,0.0,1.0,83,0.00,,,0.07,Wunderground v.1.15,2013-10-14 11:58:00,
2013-10-14 23:03:00,49.1,44.2,30.14,South,189,0.0,0.0,83,0.00,,,0.07,Wunderground v.1.15,2013-10-14 12:03:00,
2013-10-14 23:09:00,48.8,44.2,30.15,South,188,0.0,0.0,84,0.00,,,0.07,Wunderground v.1.15,2013-10-14 12:09:00,
2013-10-14 23:14:00,48.5,43.9,30.14,South,188,0.0,0.0,84,0.00,,,0.07,Wunderground v.1.15,2013-10-14 12:14:00,
2013-10-14 23:19:00,48.1,43.8,30.15,South,188,0.0,0.0,85,0.00,,,0.07,Wunderground v.1.15,2013-10-14 12:19:00,
2013-10-14 23:25:00,47.6,43.3,30.15,South,188,0.0,0.0,85,0.00,,,0.07,Wunderground v.1.15,2013-10-14 12:25:00,
2013-10-14 23:30:00,48.0,43.7,30.15,North,-999,0.0,0.0,85,0.00,,,-99.99,WeatherLink 5.9.3,2013-10-14 12:30:00,
2013-10-14 23:36:00,46.8,42.8,30.16,South,188,0.0,0.0,86,0.00,,,0.07,Wunderground v.1.15,2013-10-14 12:36:00,
2013-10-14 23:42:00,46.8,42.8,30.16,South,188,0.0,0.0,86,0.00,,,0.07,Wunderground v.1.15,2013-10-14 12:42:00,
2013-10-14 23:47:00,46.7,42.4,30.16,South,188,0.0,0.0,85,0.00,,,0.07,Wunderground v.1.15,2013-10-14 12:47:00,
2013-10-14 23:52:00,47.5,42.3,30.16,South,188,0.0,0.0,82,0.00,,,0.07,Wunderground v.1.15,2013-10-14 12:52:00,
2013-10-14 23:58:00,48.5,41.3,30.16,West,263,0.0,1.0,76,0.00,,,0.07,Wunderground v.1.15,2013-10-14 12:58:00,